Página principal
METAR-TAF:

METAR-TAF

Aeroportos :

Saskatoon, Saskatchewan, Canadá

latitude: 52-10N, longitude: 106-41W, altura: 501 m

Observação actual do tempo

O boletim foi feito há 18 minutos, às 05:00 UTC
Vento 8 kt de sudeste
Temperatura 1°C
Humidade 55%
Pressão 1025 hPa
Visibilidade: 24.1 km
Céu limpo

METAR: CYXE 230500Z 13008KT 15SM SKC 01/M07 A3027 RMK SLP278

Hora: 23:18 (05:18 UTC)

Previsão

O boletim foi feito há 5 horas e 40 minutos, às 23:38 UTC
Previsão válida de 23 às 00 UTC a 23 às 24 UTC
Vento 3 kt com direcção variável
Visibilidade: 10 km
Céu limpo
Tornando-se
de 23 às 02 UTC a 23 às 04 UTC
Vento 8 kt de sudeste
Tornando-se
de 23 às 13 UTC a 23 às 15 UTC
Vento 12 kt de sudeste

TAF: CYXE 222338Z 2300/2324 VRB03KT P6SM SKC BECMG 2302/2304 14008KT BECMG 2313/2315 14012KT RMK NXT FCST BY 230600Z

Observações e previsões do tempo de mais de 4000 aeroportos (mensagens METAR e TAF).

As estações disponíveis são os pontos amarelos e vermelhos sobre o mapa.

Mova o rato sobre o mapa para ver o nome da estação.

Depois clique no ponto para visualizar as observações e previsões meteorológicas.

Para alterar o mapa : clique nos botões verdes com uma cruz preta para aumentar o zoom; no botão verde com uma pitada de zoom; ou nas setas verdes para mapas adjacentes.


METAR-TAF: